sensor_id;sensor_type;location;lat;lon;timestamp;temperature;humidity
9116;DHT22;4593;53.652;10.168;2023-12-20T00:00:47;4.90;100.00
9116;DHT22;4593;53.652;10.168;2023-12-20T00:03:13;4.90;100.00
9116;DHT22;4593;53.652;10.168;2023-12-20T00:05:38;4.90;100.00
9116;DHT22;4593;53.652;10.168;2023-12-20T00:08:06;4.90;100.00
9116;DHT22;4593;53.652;10.168;2023-12-20T00:10:32;4.90;100.00
9116;DHT22;4593;53.652;10.168;2023-12-20T00:12:57;4.90;100.00
9116;DHT22;4593;53.652;10.168;2023-12-20T00:15:23;4.80;100.00
9116;DHT22;4593;53.652;10.168;2023-12-20T00:17:48;4.80;100.00
9116;DHT22;4593;53.652;10.168;2023-12-20T00:20:14;4.80;100.00
9116;DHT22;4593;53.652;10.168;2023-12-20T00:22:40;4.80;100.00
9116;DHT22;4593;53.652;10.168;2023-12-20T00:25:06;4.80;100.00
9116;DHT22;4593;53.652;10.168;2023-12-20T00:27:31;4.70;100.00
9116;DHT22;4593;53.652;10.168;2023-12-20T00:29:57;4.70;100.00
9116;DHT22;4593;53.652;10.168;2023-12-20T00:32:22;4.70;100.00
9116;DHT22;4593;53.652;10.168;2023-12-20T00:34:48;4.70;100.00
9116;DHT22;4593;53.652;10.168;2023-12-20T00:37:13;4.70;100.00
9116;DHT22;4593;53.652;10.168;2023-12-20T00:39:39;4.80;100.00
9116;DHT22;4593;53.652;10.168;2023-12-20T00:42:05;4.90;100.00
9116;DHT22;4593;53.652;10.168;2023-12-20T00:44:30;5.00;100.00
9116;DHT22;4593;53.652;10.168;2023-12-20T00:46:57;5.10;100.00
9116;DHT22;4593;53.652;10.168;2023-12-20T00:49:22;5.20;100.00
9116;DHT22;4593;53.652;10.168;2023-12-20T00:51:48;5.30;100.00
9116;DHT22;4593;53.652;10.168;2023-12-20T00:54:16;5.40;100.00
9116;DHT22;4593;53.652;10.168;2023-12-20T00:56:41;5.40;100.00
9116;DHT22;4593;53.652;10.168;2023-12-20T00:59:07;5.40;100.00
9116;DHT22;4593;53.652;10.168;2023-12-20T01:01:32;5.40;100.00
9116;DHT22;4593;53.652;10.168;2023-12-20T01:03:58;5.40;100.00
9116;DHT22;4593;53.652;10.168;2023-12-20T01:06:24;5.40;100.00
9116;DHT22;4593;53.652;10.168;2023-12-20T01:08:50;5.50;100.00
9116;DHT22;4593;53.652;10.168;2023-12-20T01:11:15;5.50;100.00
9116;DHT22;4593;53.652;10.168;2023-12-20T01:13:41;5.50;100.00
9116;DHT22;4593;53.652;10.168;2023-12-20T01:16:10;5.60;100.00
9116;DHT22;4593;53.652;10.168;2023-12-20T01:18:35;5.50;100.00
9116;DHT22;4593;53.652;10.168;2023-12-20T01:21:02;5.50;100.00
9116;DHT22;4593;53.652;10.168;2023-12-20T01:23:32;5.40;100.00
9116;DHT22;4593;53.652;10.168;2023-12-20T01:25:58;5.30;100.00
9116;DHT22;4593;53.652;10.168;2023-12-20T01:28:25;5.20;100.00
9116;DHT22;4593;53.652;10.168;2023-12-20T01:30:51;5.10;100.00
9116;DHT22;4593;53.652;10.168;2023-12-20T01:33:16;5.00;100.00
9116;DHT22;4593;53.652;10.168;2023-12-20T01:35:42;4.90;100.00
9116;DHT22;4593;53.652;10.168;2023-12-20T01:38:08;4.90;100.00
9116;DHT22;4593;53.652;10.168;2023-12-20T01:40:34;4.90;100.00
9116;DHT22;4593;53.652;10.168;2023-12-20T01:43:09;4.90;100.00
9116;DHT22;4593;53.652;10.168;2023-12-20T01:45:35;4.80;100.00
9116;DHT22;4593;53.652;10.168;2023-12-20T01:48:02;4.80;100.00
9116;DHT22;4593;53.652;10.168;2023-12-20T01:50:30;4.70;100.00
9116;DHT22;4593;53.652;10.168;2023-12-20T01:52:59;4.70;100.00
9116;DHT22;4593;53.652;10.168;2023-12-20T01:55:27;4.80;100.00
9116;DHT22;4593;53.652;10.168;2023-12-20T01:57:55;4.90;100.00
9116;DHT22;4593;53.652;10.168;2023-12-20T02:00:22;5.00;100.00
9116;DHT22;4593;53.652;10.168;2023-12-20T02:02:53;5.20;100.00
9116;DHT22;4593;53.652;10.168;2023-12-20T02:05:21;5.30;100.00
9116;DHT22;4593;53.652;10.168;2023-12-20T02:07:47;5.40;100.00
9116;DHT22;4593;53.652;10.168;2023-12-20T02:10:13;5.40;100.00
9116;DHT22;4593;53.652;10.168;2023-12-20T02:12:39;5.50;100.00
9116;DHT22;4593;53.652;10.168;2023-12-20T02:15:05;5.40;100.00
9116;DHT22;4593;53.652;10.168;2023-12-20T02:17:32;5.40;100.00
9116;DHT22;4593;53.652;10.168;2023-12-20T02:19:58;5.40;100.00
9116;DHT22;4593;53.652;10.168;2023-12-20T02:22:23;5.30;100.00
9116;DHT22;4593;53.652;10.168;2023-12-20T02:24:49;5.30;100.00
9116;DHT22;4593;53.652;10.168;2023-12-20T02:27:15;5.30;100.00
9116;DHT22;4593;53.652;10.168;2023-12-20T02:29:43;5.30;100.00
9116;DHT22;4593;53.652;10.168;2023-12-20T02:32:09;5.30;100.00
9116;DHT22;4593;53.652;10.168;2023-12-20T02:34:34;5.40;100.00
9116;DHT22;4593;53.652;10.168;2023-12-20T02:37:00;5.40;100.00
9116;DHT22;4593;53.652;10.168;2023-12-20T02:39:26;5.40;100.00
9116;DHT22;4593;53.652;10.168;2023-12-20T02:41:52;5.50;100.00
9116;DHT22;4593;53.652;10.168;2023-12-20T02:44:18;5.50;100.00
9116;DHT22;4593;53.652;10.168;2023-12-20T02:46:43;5.60;100.00
9116;DHT22;4593;53.652;10.168;2023-12-20T02:49:09;5.50;100.00
9116;DHT22;4593;53.652;10.168;2023-12-20T02:51:34;5.50;100.00
9116;DHT22;4593;53.652;10.168;2023-12-20T02:54:03;5.60;100.00
9116;DHT22;4593;53.652;10.168;2023-12-20T02:56:29;5.50;100.00
9116;DHT22;4593;53.652;10.168;2023-12-20T02:58:54;5.60;100.00
9116;DHT22;4593;53.652;10.168;2023-12-20T03:01:20;5.60;100.00
9116;DHT22;4593;53.652;10.168;2023-12-20T03:03:45;5.60;100.00
9116;DHT22;4593;53.652;10.168;2023-12-20T03:06:11;5.50;100.00
9116;DHT22;4593;53.652;10.168;2023-12-20T03:08:37;5.60;100.00
9116;DHT22;4593;53.652;10.168;2023-12-20T03:11:02;5.60;100.00
9116;DHT22;4593;53.652;10.168;2023-12-20T03:13:28;5.60;100.00
9116;DHT22;4593;53.652;10.168;2023-12-20T03:15:53;5.60;100.00
9116;DHT22;4593;53.652;10.168;2023-12-20T03:18:19;5.60;100.00
9116;DHT22;4593;53.652;10.168;2023-12-20T03:20:45;5.60;100.00
9116;DHT22;4593;53.652;10.168;2023-12-20T03:23:10;5.60;100.00
9116;DHT22;4593;53.652;10.168;2023-12-20T03:25:36;5.60;100.00
9116;DHT22;4593;53.652;10.168;2023-12-20T03:28:01;5.60;100.00
9116;DHT22;4593;53.652;10.168;2023-12-20T03:30:27;5.70;100.00
9116;DHT22;4593;53.652;10.168;2023-12-20T03:32:53;5.70;100.00
9116;DHT22;4593;53.652;10.168;2023-12-20T03:35:18;5.70;100.00
9116;DHT22;4593;53.652;10.168;2023-12-20T03:37:44;5.70;100.00
9116;DHT22;4593;53.652;10.168;2023-12-20T03:40:10;5.70;100.00
9116;DHT22;4593;53.652;10.168;2023-12-20T03:42:35;5.70;100.00
9116;DHT22;4593;53.652;10.168;2023-12-20T03:45:01;5.70;100.00
9116;DHT22;4593;53.652;10.168;2023-12-20T03:47:26;5.70;100.00
9116;DHT22;4593;53.652;10.168;2023-12-20T03:49:53;5.70;100.00
9116;DHT22;4593;53.652;10.168;2023-12-20T03:52:18;5.70;100.00
9116;DHT22;4593;53.652;10.168;2023-12-20T03:54:44;5.70;100.00
9116;DHT22;4593;53.652;10.168;2023-12-20T03:57:10;5.70;100.00
9116;DHT22;4593;53.652;10.168;2023-12-20T03:59:36;5.60;100.00
9116;DHT22;4593;53.652;10.168;2023-12-20T04:02:02;5.60;100.00
9116;DHT22;4593;53.652;10.168;2023-12-20T04:04:28;5.60;100.00
9116;DHT22;4593;53.652;10.168;2023-12-20T04:06:53;5.60;100.00
9116;DHT22;4593;53.652;10.168;2023-12-20T04:09:19;5.70;100.00
9116;DHT22;4593;53.652;10.168;2023-12-20T04:11:44;5.70;100.00
9116;DHT22;4593;53.652;10.168;2023-12-20T04:14:10;5.70;100.00
9116;DHT22;4593;53.652;10.168;2023-12-20T04:16:36;5.70;100.00
9116;DHT22;4593;53.652;10.168;2023-12-20T04:19:02;5.70;100.00
9116;DHT22;4593;53.652;10.168;2023-12-20T04:21:27;5.70;100.00
9116;DHT22;4593;53.652;10.168;2023-12-20T04:23:53;5.70;100.00
9116;DHT22;4593;53.652;10.168;2023-12-20T04:26:19;5.70;100.00
9116;DHT22;4593;53.652;10.168;2023-12-20T04:28:44;5.70;100.00
9116;DHT22;4593;53.652;10.168;2023-12-20T04:31:10;5.60;100.00
9116;DHT22;4593;53.652;10.168;2023-12-20T04:33:36;5.70;100.00
9116;DHT22;4593;53.652;10.168;2023-12-20T04:36:01;5.70;100.00
9116;DHT22;4593;53.652;10.168;2023-12-20T04:38:27;5.60;100.00
9116;DHT22;4593;53.652;10.168;2023-12-20T04:40:52;5.60;100.00
9116;DHT22;4593;53.652;10.168;2023-12-20T04:43:18;5.60;100.00
9116;DHT22;4593;53.652;10.168;2023-12-20T04:45:44;5.50;100.00
9116;DHT22;4593;53.652;10.168;2023-12-20T04:48:09;5.60;100.00
9116;DHT22;4593;53.652;10.168;2023-12-20T04:50:35;5.60;100.00
9116;DHT22;4593;53.652;10.168;2023-12-20T04:53:01;5.70;100.00
9116;DHT22;4593;53.652;10.168;2023-12-20T04:55:26;5.70;100.00
9116;DHT22;4593;53.652;10.168;2023-12-20T04:57:52;5.70;100.00
9116;DHT22;4593;53.652;10.168;2023-12-20T05:00:18;5.70;100.00
9116;DHT22;4593;53.652;10.168;2023-12-20T05:02:43;5.70;100.00
9116;DHT22;4593;53.652;10.168;2023-12-20T05:05:09;5.70;100.00
9116;DHT22;4593;53.652;10.168;2023-12-20T05:07:35;5.70;100.00
9116;DHT22;4593;53.652;10.168;2023-12-20T05:10:00;5.70;100.00
9116;DHT22;4593;53.652;10.168;2023-12-20T05:12:26;5.70;100.00
9116;DHT22;4593;53.652;10.168;2023-12-20T05:14:52;5.60;100.00
9116;DHT22;4593;53.652;10.168;2023-12-20T05:17:18;5.60;100.00
9116;DHT22;4593;53.652;10.168;2023-12-20T05:19:45;5.60;100.00
9116;DHT22;4593;53.652;10.168;2023-12-20T05:22:11;5.60;100.00
9116;DHT22;4593;53.652;10.168;2023-12-20T05:24:37;5.60;100.00
9116;DHT22;4593;53.652;10.168;2023-12-20T05:27:03;5.70;100.00
9116;DHT22;4593;53.652;10.168;2023-12-20T05:29:28;5.80;100.00
9116;DHT22;4593;53.652;10.168;2023-12-20T05:31:54;5.70;100.00
9116;DHT22;4593;53.652;10.168;2023-12-20T05:34:19;5.80;100.00
9116;DHT22;4593;53.652;10.168;2023-12-20T05:36:45;5.80;100.00
9116;DHT22;4593;53.652;10.168;2023-12-20T05:39:11;5.80;100.00
9116;DHT22;4593;53.652;10.168;2023-12-20T05:41:37;5.90;100.00
9116;DHT22;4593;53.652;10.168;2023-12-20T05:44:03;5.90;100.00
9116;DHT22;4593;53.652;10.168;2023-12-20T05:46:28;5.90;100.00
9116;DHT22;4593;53.652;10.168;2023-12-20T05:48:54;5.80;100.00
9116;DHT22;4593;53.652;10.168;2023-12-20T05:51:20;5.80;100.00
9116;DHT22;4593;53.652;10.168;2023-12-20T05:53:45;5.90;100.00
9116;DHT22;4593;53.652;10.168;2023-12-20T05:56:11;5.90;100.00
9116;DHT22;4593;53.652;10.168;2023-12-20T05:58:38;5.80;100.00
9116;DHT22;4593;53.652;10.168;2023-12-20T06:01:05;5.80;100.00
9116;DHT22;4593;53.652;10.168;2023-12-20T06:03:31;5.70;100.00
9116;DHT22;4593;53.652;10.168;2023-12-20T06:05:56;5.70;100.00
9116;DHT22;4593;53.652;10.168;2023-12-20T06:08:22;5.80;100.00
9116;DHT22;4593;53.652;10.168;2023-12-20T06:10:48;5.80;100.00
9116;DHT22;4593;53.652;10.168;2023-12-20T06:13:14;5.80;100.00
9116;DHT22;4593;53.652;10.168;2023-12-20T06:15:40;5.90;100.00
9116;DHT22;4593;53.652;10.168;2023-12-20T06:18:06;5.90;100.00
9116;DHT22;4593;53.652;10.168;2023-12-20T06:20:32;5.90;100.00
9116;DHT22;4593;53.652;10.168;2023-12-20T06:22:58;5.80;100.00
9116;DHT22;4593;53.652;10.168;2023-12-20T06:25:24;5.80;100.00
9116;DHT22;4593;53.652;10.168;2023-12-20T06:27:49;5.80;100.00
9116;DHT22;4593;53.652;10.168;2023-12-20T06:30:16;5.90;100.00
9116;DHT22;4593;53.652;10.168;2023-12-20T06:32:42;5.90;100.00
9116;DHT22;4593;53.652;10.168;2023-12-20T06:35:09;5.90;100.00
9116;DHT22;4593;53.652;10.168;2023-12-20T06:37:35;5.80;100.00
9116;DHT22;4593;53.652;10.168;2023-12-20T06:40:00;5.70;100.00
9116;DHT22;4593;53.652;10.168;2023-12-20T06:42:26;5.80;100.00
9116;DHT22;4593;53.652;10.168;2023-12-20T06:44:52;5.80;100.00
9116;DHT22;4593;53.652;10.168;2023-12-20T06:47:17;5.80;100.00
9116;DHT22;4593;53.652;10.168;2023-12-20T06:49:43;5.80;100.00
9116;DHT22;4593;53.652;10.168;2023-12-20T06:52:09;5.80;100.00
9116;DHT22;4593;53.652;10.168;2023-12-20T06:54:35;5.80;100.00
9116;DHT22;4593;53.652;10.168;2023-12-20T06:57:01;5.80;100.00
9116;DHT22;4593;53.652;10.168;2023-12-20T06:59:28;5.80;100.00
9116;DHT22;4593;53.652;10.168;2023-12-20T07:01:54;5.80;100.00
9116;DHT22;4593;53.652;10.168;2023-12-20T07:04:20;5.80;100.00
9116;DHT22;4593;53.652;10.168;2023-12-20T07:06:47;5.90;100.00
9116;DHT22;4593;53.652;10.168;2023-12-20T07:09:13;5.90;100.00
9116;DHT22;4593;53.652;10.168;2023-12-20T07:11:39;5.90;100.00
9116;DHT22;4593;53.652;10.168;2023-12-20T07:14:05;5.90;100.00
9116;DHT22;4593;53.652;10.168;2023-12-20T07:16:31;5.90;100.00
9116;DHT22;4593;53.652;10.168;2023-12-20T07:18:57;5.90;100.00
9116;DHT22;4593;53.652;10.168;2023-12-20T07:21:23;5.90;100.00
9116;DHT22;4593;53.652;10.168;2023-12-20T07:23:48;5.90;100.00
9116;DHT22;4593;53.652;10.168;2023-12-20T07:26:15;6.00;100.00
9116;DHT22;4593;53.652;10.168;2023-12-20T07:28:41;5.90;100.00
9116;DHT22;4593;53.652;10.168;2023-12-20T07:31:06;6.00;100.00
9116;DHT22;4593;53.652;10.168;2023-12-20T07:33:32;5.90;100.00
9116;DHT22;4593;53.652;10.168;2023-12-20T07:35:59;6.00;100.00
9116;DHT22;4593;53.652;10.168;2023-12-20T07:38:25;6.00;100.00
9116;DHT22;4593;53.652;10.168;2023-12-20T07:40:50;6.00;100.00
9116;DHT22;4593;53.652;10.168;2023-12-20T07:43:16;6.00;100.00
9116;DHT22;4593;53.652;10.168;2023-12-20T07:45:42;6.10;100.00
9116;DHT22;4593;53.652;10.168;2023-12-20T07:48:07;6.10;100.00
9116;DHT22;4593;53.652;10.168;2023-12-20T07:50:34;6.10;100.00
9116;DHT22;4593;53.652;10.168;2023-12-20T07:52:59;6.10;100.00
9116;DHT22;4593;53.652;10.168;2023-12-20T07:55:26;6.20;100.00
9116;DHT22;4593;53.652;10.168;2023-12-20T07:57:52;6.20;100.00
9116;DHT22;4593;53.652;10.168;2023-12-20T08:00:18;6.20;100.00
9116;DHT22;4593;53.652;10.168;2023-12-20T08:02:44;6.10;100.00
9116;DHT22;4593;53.652;10.168;2023-12-20T08:05:10;6.10;100.00
9116;DHT22;4593;53.652;10.168;2023-12-20T08:07:36;6.00;100.00
9116;DHT22;4593;53.652;10.168;2023-12-20T08:10:02;6.10;100.00
9116;DHT22;4593;53.652;10.168;2023-12-20T08:12:28;6.10;100.00
9116;DHT22;4593;53.652;10.168;2023-12-20T08:14:54;6.10;100.00
9116;DHT22;4593;53.652;10.168;2023-12-20T08:17:20;6.10;100.00
9116;DHT22;4593;53.652;10.168;2023-12-20T08:19:45;6.20;100.00
9116;DHT22;4593;53.652;10.168;2023-12-20T08:22:11;6.20;100.00
9116;DHT22;4593;53.652;10.168;2023-12-20T08:24:37;6.30;100.00
9116;DHT22;4593;53.652;10.168;2023-12-20T08:27:04;6.30;100.00
9116;DHT22;4593;53.652;10.168;2023-12-20T08:29:30;6.30;100.00
9116;DHT22;4593;53.652;10.168;2023-12-20T08:31:56;6.40;100.00
9116;DHT22;4593;53.652;10.168;2023-12-20T08:34:22;6.40;100.00
9116;DHT22;4593;53.652;10.168;2023-12-20T08:36:47;6.50;100.00
9116;DHT22;4593;53.652;10.168;2023-12-20T08:39:13;6.40;100.00
9116;DHT22;4593;53.652;10.168;2023-12-20T08:41:39;6.50;100.00
9116;DHT22;4593;53.652;10.168;2023-12-20T08:44:04;6.50;100.00
9116;DHT22;4593;53.652;10.168;2023-12-20T08:46:30;6.60;100.00
9116;DHT22;4593;53.652;10.168;2023-12-20T08:48:55;6.60;100.00
9116;DHT22;4593;53.652;10.168;2023-12-20T08:51:21;6.70;100.00
9116;DHT22;4593;53.652;10.168;2023-12-20T08:53:49;6.70;100.00
9116;DHT22;4593;53.652;10.168;2023-12-20T08:56:15;6.70;100.00
9116;DHT22;4593;53.652;10.168;2023-12-20T08:58:41;6.80;100.00
9116;DHT22;4593;53.652;10.168;2023-12-20T09:01:08;6.90;100.00
9116;DHT22;4593;53.652;10.168;2023-12-20T09:03:34;6.90;100.00
9116;DHT22;4593;53.652;10.168;2023-12-20T09:06:00;6.80;100.00
9116;DHT22;4593;53.652;10.168;2023-12-20T09:08:26;6.70;100.00
9116;DHT22;4593;53.652;10.168;2023-12-20T09:10:51;6.60;100.00
9116;DHT22;4593;53.652;10.168;2023-12-20T09:13:17;6.50;100.00
9116;DHT22;4593;53.652;10.168;2023-12-20T09:15:43;6.50;100.00
9116;DHT22;4593;53.652;10.168;2023-12-20T09:18:09;6.40;100.00
9116;DHT22;4593;53.652;10.168;2023-12-20T09:20:34;6.30;100.00
9116;DHT22;4593;53.652;10.168;2023-12-20T09:23:00;6.30;100.00
9116;DHT22;4593;53.652;10.168;2023-12-20T09:25:26;6.30;100.00
9116;DHT22;4593;53.652;10.168;2023-12-20T09:27:52;6.20;100.00
9116;DHT22;4593;53.652;10.168;2023-12-20T09:30:18;6.10;100.00
9116;DHT22;4593;53.652;10.168;2023-12-20T09:32:44;5.90;100.00
9116;DHT22;4593;53.652;10.168;2023-12-20T09:35:10;5.80;100.00
9116;DHT22;4593;53.652;10.168;2023-12-20T09:37:36;5.80;100.00
9116;DHT22;4593;53.652;10.168;2023-12-20T09:40:06;5.90;100.00
9116;DHT22;4593;53.652;10.168;2023-12-20T09:42:44;5.90;100.00
9116;DHT22;4593;53.652;10.168;2023-12-20T09:45:14;5.90;100.00
9116;DHT22;4593;53.652;10.168;2023-12-20T09:47:43;5.90;100.00
9116;DHT22;4593;53.652;10.168;2023-12-20T09:50:09;6.00;100.00
9116;DHT22;4593;53.652;10.168;2023-12-20T09:52:36;6.00;100.00
9116;DHT22;4593;53.652;10.168;2023-12-20T09:55:04;6.00;100.00
9116;DHT22;4593;53.652;10.168;2023-12-20T09:57:32;6.00;100.00
9116;DHT22;4593;53.652;10.168;2023-12-20T09:59:58;6.00;100.00
9116;DHT22;4593;53.652;10.168;2023-12-20T10:02:25;6.10;100.00
9116;DHT22;4593;53.652;10.168;2023-12-20T10:04:55;5.80;100.00
9116;DHT22;4593;53.652;10.168;2023-12-20T10:07:21;5.70;100.00
9116;DHT22;4593;53.652;10.168;2023-12-20T10:09:48;5.60;100.00
9116;DHT22;4593;53.652;10.168;2023-12-20T10:12:14;5.70;100.00
9116;DHT22;4593;53.652;10.168;2023-12-20T10:14:39;5.70;100.00
9116;DHT22;4593;53.652;10.168;2023-12-20T10:17:06;5.80;100.00
9116;DHT22;4593;53.652;10.168;2023-12-20T10:19:32;5.90;100.00
9116;DHT22;4593;53.652;10.168;2023-12-20T10:22:05;5.70;100.00
9116;DHT22;4593;53.652;10.168;2023-12-20T10:24:31;5.70;100.00
9116;DHT22;4593;53.652;10.168;2023-12-20T10:27:03;5.60;100.00
9116;DHT22;4593;53.652;10.168;2023-12-20T10:29:35;5.60;100.00
9116;DHT22;4593;53.652;10.168;2023-12-20T10:32:24;5.80;100.00
9116;DHT22;4593;53.652;10.168;2023-12-20T10:34:53;5.80;100.00
9116;DHT22;4593;53.652;10.168;2023-12-20T10:37:20;5.90;100.00
9116;DHT22;4593;53.652;10.168;2023-12-20T10:39:50;5.70;100.00
9116;DHT22;4593;53.652;10.168;2023-12-20T10:42:26;5.70;100.00
9116;DHT22;4593;53.652;10.168;2023-12-20T10:44:51;5.70;100.00
9116;DHT22;4593;53.652;10.168;2023-12-20T10:47:22;5.50;100.00
9116;DHT22;4593;53.652;10.168;2023-12-20T10:49:48;5.50;100.00
9116;DHT22;4593;53.652;10.168;2023-12-20T10:52:16;5.50;100.00
9116;DHT22;4593;53.652;10.168;2023-12-20T10:54:42;5.60;100.00
9116;DHT22;4593;53.652;10.168;2023-12-20T10:57:08;5.70;100.00
9116;DHT22;4593;53.652;10.168;2023-12-20T10:59:36;5.70;100.00
9116;DHT22;4593;53.652;10.168;2023-12-20T11:02:03;5.80;100.00
9116;DHT22;4593;53.652;10.168;2023-12-20T11:04:59;5.70;100.00
9116;DHT22;4593;53.652;10.168;2023-12-20T11:07:29;5.80;100.00
9116;DHT22;4593;53.652;10.168;2023-12-20T11:10:00;5.80;100.00
9116;DHT22;4593;53.652;10.168;2023-12-20T11:12:52;5.70;100.00
9116;DHT22;4593;53.652;10.168;2023-12-20T11:15:19;5.60;100.00
9116;DHT22;4593;53.652;10.168;2023-12-20T11:17:45;5.50;100.00
9116;DHT22;4593;53.652;10.168;2023-12-20T11:20:14;5.40;100.00
9116;DHT22;4593;53.652;10.168;2023-12-20T11:22:40;5.30;100.00
9116;DHT22;4593;53.652;10.168;2023-12-20T11:25:16;5.30;100.00
9116;DHT22;4593;53.652;10.168;2023-12-20T11:27:43;5.10;100.00
9116;DHT22;4593;53.652;10.168;2023-12-20T11:30:09;4.90;100.00
9116;DHT22;4593;53.652;10.168;2023-12-20T11:32:36;4.70;100.00
9116;DHT22;4593;53.652;10.168;2023-12-20T11:37:37;4.90;100.00
9116;DHT22;4593;53.652;10.168;2023-12-20T11:40:05;5.00;100.00
9116;DHT22;4593;53.652;10.168;2023-12-20T11:42:45;5.00;100.00
9116;DHT22;4593;53.652;10.168;2023-12-20T11:45:15;4.90;100.00
9116;DHT22;4593;53.652;10.168;2023-12-20T11:47:43;4.90;100.00
9116;DHT22;4593;53.652;10.168;2023-12-20T11:50:11;4.90;100.00
9116;DHT22;4593;53.652;10.168;2023-12-20T11:52:36;4.90;100.00
9116;DHT22;4593;53.652;10.168;2023-12-20T11:55:02;5.00;100.00
9116;DHT22;4593;53.652;10.168;2023-12-20T11:57:30;5.00;100.00
9116;DHT22;4593;53.652;10.168;2023-12-20T11:59:56;5.10;100.00
9116;DHT22;4593;53.652;10.168;2023-12-20T12:02:21;5.00;100.00
9116;DHT22;4593;53.652;10.168;2023-12-20T12:04:49;5.00;100.00
9116;DHT22;4593;53.652;10.168;2023-12-20T12:07:16;5.00;100.00
9116;DHT22;4593;53.652;10.168;2023-12-20T12:09:42;5.00;100.00
9116;DHT22;4593;53.652;10.168;2023-12-20T12:12:08;5.10;100.00
9116;DHT22;4593;53.652;10.168;2023-12-20T12:14:34;5.20;100.00
9116;DHT22;4593;53.652;10.168;2023-12-20T12:17:03;5.40;100.00
9116;DHT22;4593;53.652;10.168;2023-12-20T12:19:29;5.60;100.00
9116;DHT22;4593;53.652;10.168;2023-12-20T12:22:15;5.80;100.00
9116;DHT22;4593;53.652;10.168;2023-12-20T12:24:44;5.80;100.00
9116;DHT22;4593;53.652;10.168;2023-12-20T12:27:11;5.70;100.00
9116;DHT22;4593;53.652;10.168;2023-12-20T12:29:37;5.60;100.00
9116;DHT22;4593;53.652;10.168;2023-12-20T12:32:09;5.50;100.00
9116;DHT22;4593;53.652;10.168;2023-12-20T12:34:35;5.50;100.00
9116;DHT22;4593;53.652;10.168;2023-12-20T12:37:03;5.40;100.00
9116;DHT22;4593;53.652;10.168;2023-12-20T12:39:29;5.40;100.00
9116;DHT22;4593;53.652;10.168;2023-12-20T12:41:56;5.60;100.00
9116;DHT22;4593;53.652;10.168;2023-12-20T12:44:22;5.70;100.00
9116;DHT22;4593;53.652;10.168;2023-12-20T12:46:51;5.90;100.00
9116;DHT22;4593;53.652;10.168;2023-12-20T12:49:22;5.90;100.00
9116;DHT22;4593;53.652;10.168;2023-12-20T12:51:48;5.80;100.00
9116;DHT22;4593;53.652;10.168;2023-12-20T12:54:13;5.90;100.00
9116;DHT22;4593;53.652;10.168;2023-12-20T12:56:41;6.00;100.00
9116;DHT22;4593;53.652;10.168;2023-12-20T12:59:08;6.00;100.00
9116;DHT22;4593;53.652;10.168;2023-12-20T13:01:33;5.90;100.00
9116;DHT22;4593;53.652;10.168;2023-12-20T13:03:59;6.00;100.00
9116;DHT22;4593;53.652;10.168;2023-12-20T13:06:27;6.00;100.00
9116;DHT22;4593;53.652;10.168;2023-12-20T13:08:52;6.10;100.00
9116;DHT22;4593;53.652;10.168;2023-12-20T13:11:18;6.10;100.00
9116;DHT22;4593;53.652;10.168;2023-12-20T13:13:44;6.00;100.00
9116;DHT22;4593;53.652;10.168;2023-12-20T13:16:09;6.00;100.00
9116;DHT22;4593;53.652;10.168;2023-12-20T13:18:35;5.90;100.00
9116;DHT22;4593;53.652;10.168;2023-12-20T13:21:00;5.70;100.00
9116;DHT22;4593;53.652;10.168;2023-12-20T13:23:26;5.70;100.00
9116;DHT22;4593;53.652;10.168;2023-12-20T13:25:52;5.70;100.00
9116;DHT22;4593;53.652;10.168;2023-12-20T13:28:17;5.60;100.00
9116;DHT22;4593;53.652;10.168;2023-12-20T13:30:43;5.60;100.00
9116;DHT22;4593;53.652;10.168;2023-12-20T13:33:09;5.70;100.00
9116;DHT22;4593;53.652;10.168;2023-12-20T13:35:35;5.80;100.00
9116;DHT22;4593;53.652;10.168;2023-12-20T13:38:01;5.80;100.00
9116;DHT22;4593;53.652;10.168;2023-12-20T13:40:27;5.90;100.00
9116;DHT22;4593;53.652;10.168;2023-12-20T13:42:53;5.80;100.00
9116;DHT22;4593;53.652;10.168;2023-12-20T13:45:20;5.70;100.00
9116;DHT22;4593;53.652;10.168;2023-12-20T13:47:45;5.60;100.00
9116;DHT22;4593;53.652;10.168;2023-12-20T13:50:11;5.60;100.00
9116;DHT22;4593;53.652;10.168;2023-12-20T13:52:38;5.50;100.00
9116;DHT22;4593;53.652;10.168;2023-12-20T13:55:04;5.50;100.00
9116;DHT22;4593;53.652;10.168;2023-12-20T13:57:31;5.50;100.00
9116;DHT22;4593;53.652;10.168;2023-12-20T13:59:57;5.40;100.00
9116;DHT22;4593;53.652;10.168;2023-12-20T14:02:23;5.40;100.00
9116;DHT22;4593;53.652;10.168;2023-12-20T14:04:49;5.60;100.00
9116;DHT22;4593;53.652;10.168;2023-12-20T14:07:14;5.70;100.00
9116;DHT22;4593;53.652;10.168;2023-12-20T14:09:41;5.80;100.00
9116;DHT22;4593;53.652;10.168;2023-12-20T14:12:11;5.80;100.00
9116;DHT22;4593;53.652;10.168;2023-12-20T14:14:37;5.70;100.00
9116;DHT22;4593;53.652;10.168;2023-12-20T14:17:03;5.50;100.00
9116;DHT22;4593;53.652;10.168;2023-12-20T14:19:29;5.40;100.00
9116;DHT22;4593;53.652;10.168;2023-12-20T14:21:55;5.30;100.00
9116;DHT22;4593;53.652;10.168;2023-12-20T14:24:20;5.20;100.00
9116;DHT22;4593;53.652;10.168;2023-12-20T14:26:46;5.10;100.00
9116;DHT22;4593;53.652;10.168;2023-12-20T14:29:12;5.10;100.00
9116;DHT22;4593;53.652;10.168;2023-12-20T14:31:37;5.00;100.00
9116;DHT22;4593;53.652;10.168;2023-12-20T14:34:04;5.00;100.00
9116;DHT22;4593;53.652;10.168;2023-12-20T14:36:30;5.00;100.00
9116;DHT22;4593;53.652;10.168;2023-12-20T14:38:56;5.00;100.00
9116;DHT22;4593;53.652;10.168;2023-12-20T14:41:22;5.10;100.00
9116;DHT22;4593;53.652;10.168;2023-12-20T14:43:50;5.10;100.00
9116;DHT22;4593;53.652;10.168;2023-12-20T14:46:17;5.20;100.00
9116;DHT22;4593;53.652;10.168;2023-12-20T14:48:42;5.20;100.00
9116;DHT22;4593;53.652;10.168;2023-12-20T14:51:08;5.20;100.00
9116;DHT22;4593;53.652;10.168;2023-12-20T14:53:34;5.20;99.60
9116;DHT22;4593;53.652;10.168;2023-12-20T14:56:03;5.10;100.00
9116;DHT22;4593;53.652;10.168;2023-12-20T14:58:29;5.00;100.00
9116;DHT22;4593;53.652;10.168;2023-12-20T15:00:55;5.10;100.00
9116;DHT22;4593;53.652;10.168;2023-12-20T15:03:21;5.20;100.00
9116;DHT22;4593;53.652;10.168;2023-12-20T15:05:47;5.30;100.00
9116;DHT22;4593;53.652;10.168;2023-12-20T15:08:13;5.40;100.00
9116;DHT22;4593;53.652;10.168;2023-12-20T15:10:39;5.40;100.00
9116;DHT22;4593;53.652;10.168;2023-12-20T15:13:05;5.40;100.00
9116;DHT22;4593;53.652;10.168;2023-12-20T15:15:31;5.30;100.00
9116;DHT22;4593;53.652;10.168;2023-12-20T15:17:59;5.20;100.00
9116;DHT22;4593;53.652;10.168;2023-12-20T15:20:25;5.20;100.00
9116;DHT22;4593;53.652;10.168;2023-12-20T15:22:50;5.30;100.00
9116;DHT22;4593;53.652;10.168;2023-12-20T15:25:16;5.20;100.00
9116;DHT22;4593;53.652;10.168;2023-12-20T15:27:50;5.30;100.00
9116;DHT22;4593;53.652;10.168;2023-12-20T15:30:19;5.30;100.00
9116;DHT22;4593;53.652;10.168;2023-12-20T15:32:45;5.30;100.00
9116;DHT22;4593;53.652;10.168;2023-12-20T15:35:11;5.20;100.00
9116;DHT22;4593;53.652;10.168;2023-12-20T15:37:38;5.20;100.00
9116;DHT22;4593;53.652;10.168;2023-12-20T15:42:39;5.20;100.00
9116;DHT22;4593;53.652;10.168;2023-12-20T15:45:06;5.30;100.00